Time;durP1;ratioP1;P1;durP2;ratioP2;P2;SDS_P1;SDS_P2;PMS_P1;PMS_P2;Temp;Humidity;BMP_temperature;BMP_pressure;BME280_temperature;BME280_humidity;BME280_pressure;Samples;Min_cycle;Max_cycle;Signal;HPM_P1;HPM_P2
2021/12/12 00:00:33;;;;;;;9.45;5.25;;;;;;;;;;4948752;29;20281;-82
2021/12/12 00:03:03;;;;;;;9.93;4.10;;;;;;;;;;4948277;29;20192;-83
2021/12/12 00:05:36;;;;;;;11.47;4.87;;;;;;;;;;4906209;28;1242518;-82
2021/12/12 00:08:03;;;;;;;9.00;4.00;;;;;;;;;;4947212;29;20188;-83
2021/12/12 00:10:34;;;;;;;11.07;4.63;;;;;;;;;;4947372;29;20639;-85
2021/12/12 00:13:05;;;;;;;9.75;4.32;;;;;;;;;;4966030;28;20212;-84
2021/12/12 00:15:32;;;;;;;9.73;3.75;;;;;;;;;;4961642;28;20184;-83
2021/12/12 00:17:58;;;;;;;7.07;3.95;;;;;;;;;;4964075;28;20266;-84
2021/12/12 00:20:25;;;;;;;11.38;4.85;;;;;;;;;;4967047;28;20184;-83
2021/12/12 00:22:55;;;;;;;9.20;4.32;;;;;;;;;;4964651;29;20239;-84
2021/12/12 00:25:21;;;;;;;6.65;4.55;;;;;;;;;;4964064;28;20634;-85
2021/12/12 00:27:47;;;;;;;9.85;4.80;;;;;;;;;;4949059;29;20212;-86
2021/12/12 00:30:14;;;;;;;10.57;4.35;;;;;;;;;;4963766;28;20189;-85
2021/12/12 00:32:40;;;;;;;9.75;3.70;;;;;;;;;;4948088;28;20176;-83
2021/12/12 00:35:16;;;;;;;4.13;3.60;;;;;;;;;;4964065;29;20189;-85
2021/12/12 00:37:43;;;;;;;8.15;4.57;;;;;;;;;;4948766;29;20211;-86
2021/12/12 00:40:30;;;;;;;8.38;4.43;;;;;;;;;;4947085;29;20184;-86
2021/12/12 00:42:57;;;;;;;8.38;3.90;;;;;;;;;;4945716;29;20211;-84
2021/12/12 00:45:23;;;;;;;4.60;3.38;;;;;;;;;;4946687;29;20188;-83
2021/12/12 00:47:49;;;;;;;8.63;3.75;;;;;;;;;;4963988;28;20228;-86
2021/12/12 00:50:23;;;;;;;6.20;3.45;;;;;;;;;;4966384;29;20191;-85
2021/12/12 00:52:50;;;;;;;4.35;3.10;;;;;;;;;;4964811;29;20261;-84
2021/12/12 00:55:16;;;;;;;9.98;3.40;;;;;;;;;;4948974;29;20189;-84
2021/12/12 00:57:42;;;;;;;8.60;3.10;;;;;;;;;;4948979;29;20184;-86
2021/12/12 01:00:10;;;;;;;3.90;2.63;;;;;;;;;;4946368;29;20244;-82
2021/12/12 01:02:36;;;;;;;7.63;2.67;;;;;;;;;;4965882;28;20646;-84
2021/12/12 01:05:04;;;;;;;4.35;2.72;;;;;;;;;;4962643;29;20224;-87
2021/12/12 01:07:33;;;;;;;3.70;2.28;;;;;;;;;;4947151;29;20300;-85
2021/12/12 01:10:10;;;;;;;4.90;2.35;;;;;;;;;;4948672;29;20214;-82
2021/12/12 01:12:36;;;;;;;3.13;2.85;;;;;;;;;;4948611;29;20194;-85
2021/12/12 01:15:28;;;;;;;5.05;3.13;;;;;;;;;;4945982;29;20188;-85
2021/12/12 01:17:56;;;;;;;9.60;2.55;;;;;;;;;;4957310;28;20197;-85
2021/12/12 01:20:40;;;;;;;3.38;2.25;;;;;;;;;;4948291;29;20621;-85
2021/12/12 01:23:11;;;;;;;3.75;2.60;;;;;;;;;;4947486;29;20215;-85
2021/12/12 01:25:43;;;;;;;3.47;2.10;;;;;;;;;;4945813;29;20184;-86
2021/12/12 01:28:10;;;;;;;3.53;1.95;;;;;;;;;;4948275;29;20269;-86
2021/12/12 01:30:36;;;;;;;5.20;2.90;;;;;;;;;;4946015;29;20340;-86
2021/12/12 01:33:02;;;;;;;3.00;2.35;;;;;;;;;;4945474;29;20177;-87
2021/12/12 01:35:28;;;;;;;3.13;2.60;;;;;;;;;;4947419;28;20180;-85
2021/12/12 01:40:43;;;;;;;4.32;2.20;;;;;;;;;;4963826;28;20215;-84
2021/12/12 01:43:22;;;;;;;4.20;2.15;;;;;;;;;;4962691;28;20259;-86
2021/12/12 01:45:53;;;;;;;2.35;2.15;;;;;;;;;;4962458;29;20204;-87
2021/12/12 01:48:32;;;;;;;2.58;1.90;;;;;;;;;;4945653;29;20227;-84
2021/12/12 01:51:00;;;;;;;3.08;2.78;;;;;;;;;;4947079;29;20188;-86
2021/12/12 01:53:27;;;;;;;2.42;1.80;;;;;;;;;;4947991;28;20180;-87
2021/12/12 01:55:58;;;;;;;2.10;1.90;;;;;;;;;;4946254;29;20177;-87
2021/12/12 01:58:25;;;;;;;2.42;1.70;;;;;;;;;;4961224;28;20188;-89
2021/12/12 02:00:56;;;;;;;2.70;2.08;;;;;;;;;;4962067;29;20196;-84
2021/12/12 02:03:26;;;;;;;2.10;1.90;;;;;;;;;;4961810;29;20196;-87
2021/12/12 02:05:53;;;;;;;1.80;1.70;;;;;;;;;;4945855;28;20215;-86
2021/12/12 02:08:20;;;;;;;2.88;2.17;;;;;;;;;;4961544;28;20212;-85
2021/12/12 02:10:49;;;;;;;3.78;2.00;;;;;;;;;;4962733;28;20219;-84
2021/12/12 02:13:17;;;;;;;2.33;1.70;;;;;;;;;;4944770;29;20188;-86
2021/12/12 02:15:44;;;;;;;3.22;2.10;;;;;;;;;;4947191;29;20190;-85
2021/12/12 02:18:13;;;;;;;1.92;1.60;;;;;;;;;;4962097;28;20220;-85
2021/12/12 02:20:53;;;;;;;2.47;2.28;;;;;;;;;;4964056;28;20176;-87
2021/12/12 02:23:37;;;;;;;2.03;1.90;;;;;;;;;;4964680;29;20176;-84
2021/12/12 02:37:13;;;;;;;2.10;2.00;;;;;;;;;;4947643;29;20675;-85
2021/12/12 02:39:40;;;;;;;2.13;1.83;;;;;;;;;;4943022;29;20200;-85
2021/12/12 02:42:09;;;;;;;2.92;2.25;;;;;;;;;;4942888;29;20239;-85
2021/12/12 02:44:37;;;;;;;3.78;2.90;;;;;;;;;;4927649;29;20188;-85
2021/12/12 02:47:10;;;;;;;3.08;2.80;;;;;;;;;;4942846;29;20207;-86
2021/12/12 02:49:56;;;;;;;3.22;3.03;;;;;;;;;;4943320;29;20201;-86
2021/12/12 02:52:23;;;;;;;2.60;2.17;;;;;;;;;;4942376;29;20260;-83
2021/12/12 02:54:49;;;;;;;3.00;2.80;;;;;;;;;;4942818;29;20293;-84
2021/12/12 02:57:17;;;;;;;4.43;2.38;;;;;;;;;;4946684;29;20189;-84
2021/12/12 02:59:45;;;;;;;2.58;2.20;;;;;;;;;;4927090;29;20204;-85
2021/12/12 03:02:13;;;;;;;2.60;2.38;;;;;;;;;;4945021;29;20185;-83
2021/12/12 03:04:40;;;;;;;2.60;2.30;;;;;;;;;;4921710;29;20244;-85
2021/12/12 03:07:07;;;;;;;2.30;2.20;;;;;;;;;;4937247;29;20240;-84
2021/12/12 03:09:37;;;;;;;2.35;2.15;;;;;;;;;;4942160;29;20192;-85
2021/12/12 03:12:06;;;;;;;3.40;2.60;;;;;;;;;;4931324;29;20181;-84
2021/12/12 03:14:33;;;;;;;2.88;2.60;;;;;;;;;;4961785;28;20197;-85
2021/12/12 03:17:06;;;;;;;2.20;2.10;;;;;;;;;;4947368;29;20177;-85
2021/12/12 03:19:33;;;;;;;2.58;2.38;;;;;;;;;;4948844;29;20653;-84
2021/12/12 03:21:59;;;;;;;4.75;2.25;;;;;;;;;;4947537;29;20196;-84
2021/12/12 03:24:26;;;;;;;3.45;2.60;;;;;;;;;;4950978;29;20212;-84
2021/12/12 03:26:54;;;;;;;3.83;2.40;;;;;;;;;;4950319;29;20208;-84
2021/12/12 03:29:20;;;;;;;2.85;2.60;;;;;;;;;;4947727;29;20183;-84
2021/12/12 03:31:48;;;;;;;2.88;2.60;;;;;;;;;;4951473;29;20193;-84
2021/12/12 03:34:15;;;;;;;2.63;2.38;;;;;;;;;;4950238;29;20227;-85
2021/12/12 03:36:43;;;;;;;4.78;2.85;;;;;;;;;;4950311;29;20212;-85
2021/12/12 03:39:14;;;;;;;2.30;2.10;;;;;;;;;;4948336;29;20181;-84
2021/12/12 03:41:40;;;;;;;3.60;2.85;;;;;;;;;;4955161;29;20212;-84
2021/12/12 03:44:08;;;;;;;3.10;2.40;;;;;;;;;;4965853;29;20204;-83
2021/12/12 03:46:35;;;;;;;3.17;2.72;;;;;;;;;;4949525;29;20219;-84
2021/12/12 03:49:02;;;;;;;4.15;3.63;;;;;;;;;;4947576;29;20193;-83
2021/12/12 03:51:36;;;;;;;2.85;2.53;;;;;;;;;;4949863;29;20188;-83
2021/12/12 03:54:02;;;;;;;2.65;2.45;;;;;;;;;;4947090;29;20189;-83
2021/12/12 03:56:28;;;;;;;2.67;2.47;;;;;;;;;;4952990;29;20197;-83
2021/12/12 03:58:55;;;;;;;3.90;2.95;;;;;;;;;;4965625;29;20541;-83
2021/12/12 04:01:26;;;;;;;4.15;2.50;;;;;;;;;;4947307;29;20265;-83
2021/12/12 04:03:54;;;;;;;3.95;2.47;;;;;;;;;;4949455;29;20224;-83
2021/12/12 04:06:21;;;;;;;4.93;2.90;;;;;;;;;;4964332;28;20208;-83
2021/12/12 04:08:48;;;;;;;4.25;3.35;;;;;;;;;;4965253;28;20280;-83
2021/12/12 04:11:26;;;;;;;3.67;2.83;;;;;;;;;;4966536;29;20179;-82
2021/12/12 04:13:53;;;;;;;4.65;3.60;;;;;;;;;;4963032;29;20235;-83
2021/12/12 04:16:20;;;;;;;5.53;4.18;;;;;;;;;;4949043;29;20359;-83
2021/12/12 04:18:47;;;;;;;5.20;3.38;;;;;;;;;;4949962;29;20181;-83
2021/12/12 04:21:13;;;;;;;4.93;4.47;;;;;;;;;;4946736;29;20185;-83
2021/12/12 04:23:40;;;;;;;7.97;4.40;;;;;;;;;;4947491;29;20176;-83
2021/12/12 04:26:18;;;;;;;6.00;4.18;;;;;;;;;;4964823;29;20204;-83
2021/12/12 04:28:44;;;;;;;6.18;5.18;;;;;;;;;;4946507;29;20185;-83
2021/12/12 04:31:10;;;;;;;11.15;5.15;;;;;;;;;;4949092;29;20195;-83
2021/12/12 04:33:37;;;;;;;5.82;4.00;;;;;;;;;;4948706;29;20184;-82
2021/12/12 04:36:03;;;;;;;5.80;4.55;;;;;;;;;;4963439;29;20258;-83
2021/12/12 04:38:29;;;;;;;6.50;4.68;;;;;;;;;;4948896;29;20623;-82
2021/12/12 04:40:55;;;;;;;4.93;4.20;;;;;;;;;;4947238;29;20177;-82
2021/12/12 04:43:21;;;;;;;7.25;4.53;;;;;;;;;;4944682;29;20704;-82
2021/12/12 04:46:08;;;;;;;6.53;5.43;;;;;;;;;;4945872;29;20195;-81
2021/12/12 04:51:47;;;;;;;8.70;5.82;;;;;;;;;;4963029;28;20292;-82
2021/12/12 04:54:35;;;;;;;9.65;5.15;;;;;;;;;;4946309;29;20204;-81
2021/12/12 04:57:06;;;;;;;8.70;5.10;;;;;;;;;;4950307;28;20217;-82
2021/12/12 04:59:32;;;;;;;11.55;5.68;;;;;;;;;;4948236;29;20227;-81
2021/12/12 05:01:58;;;;;;;8.30;5.57;;;;;;;;;;4964978;29;20180;-82
2021/12/12 05:04:31;;;;;;;9.17;5.37;;;;;;;;;;4962899;28;20498;-82
2021/12/12 05:07:06;;;;;;;9.13;6.43;;;;;;;;;;4962888;28;20506;-82
2021/12/12 05:09:42;;;;;;;8.18;5.72;;;;;;;;;;4948480;29;20187;-82
2021/12/12 05:12:34;;;;;;;7.40;5.47;;;;;;;;;;4963429;28;20177;-82
2021/12/12 05:15:20;;;;;;;7.57;5.90;;;;;;;;;;4943921;29;20236;-82
2021/12/12 05:17:51;;;;;;;8.95;5.90;;;;;;;;;;4946371;28;20192;-82
2021/12/12 05:20:19;;;;;;;8.95;6.13;;;;;;;;;;4970981;28;20273;-81
2021/12/12 05:22:49;;;;;;;8.55;6.00;;;;;;;;;;4962673;28;20439;-82
2021/12/12 05:25:18;;;;;;;8.88;6.75;;;;;;;;;;4963032;29;20192;-82
2021/12/12 05:27:45;;;;;;;10.27;5.35;;;;;;;;;;4950137;29;20211;-81
2021/12/12 05:30:14;;;;;;;10.80;6.25;;;;;;;;;;4946103;29;20217;-82
2021/12/12 05:32:40;;;;;;;9.95;6.10;;;;;;;;;;4947332;28;20267;-82
2021/12/12 05:35:07;;;;;;;8.50;6.30;;;;;;;;;;4963447;28;20188;-81
2021/12/12 05:37:34;;;;;;;8.95;6.47;;;;;;;;;;4962871;29;20239;-82
2021/12/12 05:40:03;;;;;;;8.18;5.80;;;;;;;;;;4945073;29;20192;-83
2021/12/12 05:42:30;;;;;;;8.75;6.55;;;;;;;;;;4962616;28;20188;-82
2021/12/12 05:44:57;;;;;;;9.05;5.97;;;;;;;;;;4952083;29;20192;-82
2021/12/12 05:47:23;;;;;;;11.38;6.40;;;;;;;;;;4957958;28;20215;-81
2021/12/12 05:49:49;;;;;;;10.85;6.05;;;;;;;;;;4961897;29;20211;-83
2021/12/12 05:52:17;;;;;;;8.10;5.30;;;;;;;;;;4947811;29;20216;-83
2021/12/12 05:54:44;;;;;;;9.73;6.68;;;;;;;;;;4947436;29;20448;-83
2021/12/12 05:57:11;;;;;;;9.75;6.35;;;;;;;;;;4944795;29;20191;-82
2021/12/12 05:59:40;;;;;;;8.93;6.80;;;;;;;;;;4948680;28;20585;-81
2021/12/12 06:02:07;;;;;;;8.23;5.28;;;;;;;;;;4964513;29;20172;-81
2021/12/12 06:04:34;;;;;;;9.20;6.10;;;;;;;;;;4945159;29;20255;-82
2021/12/12 06:07:02;;;;;;;9.90;6.55;;;;;;;;;;4947371;29;20215;-81
2021/12/12 06:09:28;;;;;;;8.95;6.90;;;;;;;;;;4961504;28;20265;-81
2021/12/12 06:11:55;;;;;;;8.18;4.97;;;;;;;;;;4962155;28;20589;-82
2021/12/12 06:14:22;;;;;;;11.50;6.85;;;;;;;;;;4948823;29;20635;-82
2021/12/12 06:16:49;;;;;;;13.98;7.28;;;;;;;;;;4962714;29;20208;-82
2021/12/12 06:19:19;;;;;;;5.70;4.75;;;;;;;;;;4947855;29;20192;-82
2021/12/12 06:21:45;;;;;;;7.50;5.55;;;;;;;;;;4955888;29;20223;-82
2021/12/12 06:24:11;;;;;;;8.48;5.15;;;;;;;;;;4945359;29;20196;-82
2021/12/12 06:26:38;;;;;;;7.35;5.80;;;;;;;;;;4948766;28;20271;-81
2021/12/12 06:29:04;;;;;;;12.07;5.50;;;;;;;;;;4947838;29;20195;-81
2021/12/12 06:31:30;;;;;;;6.15;5.28;;;;;;;;;;4948852;29;20193;-81
2021/12/12 06:33:56;;;;;;;10.63;5.20;;;;;;;;;;4958086;29;20260;-81
2021/12/12 06:36:22;;;;;;;8.75;5.07;;;;;;;;;;4946779;29;20507;-81
2021/12/12 06:38:50;;;;;;;5.82;4.07;;;;;;;;;;4951875;29;20184;-81
2021/12/12 06:41:17;;;;;;;8.93;5.38;;;;;;;;;;4965127;29;20188;-82
2021/12/12 06:43:43;;;;;;;6.50;4.68;;;;;;;;;;4950736;29;20192;-82
2021/12/12 06:46:10;;;;;;;7.90;4.80;;;;;;;;;;4950072;29;20223;-80
2021/12/12 06:48:37;;;;;;;6.18;4.40;;;;;;;;;;4965552;28;20267;-82
2021/12/12 06:51:03;;;;;;;11.20;4.30;;;;;;;;;;4948226;29;20279;-81
2021/12/12 06:53:30;;;;;;;6.50;4.93;;;;;;;;;;4966529;29;20267;-81
2021/12/12 06:55:56;;;;;;;7.78;4.68;;;;;;;;;;4966119;28;20243;-81
2021/12/12 06:58:25;;;;;;;7.55;4.07;;;;;;;;;;4965472;29;20218;-82
2021/12/12 07:00:54;;;;;;;5.07;3.95;;;;;;;;;;4964667;28;20181;-82
2021/12/12 07:03:20;;;;;;;6.38;3.90;;;;;;;;;;4948422;29;20184;-82
2021/12/12 07:05:47;;;;;;;6.43;4.00;;;;;;;;;;4965442;28;20244;-82
2021/12/12 07:08:14;;;;;;;10.75;4.32;;;;;;;;;;4966719;29;20180;-82
2021/12/12 07:10:41;;;;;;;4.80;4.28;;;;;;;;;;4955365;29;20208;-81
2021/12/12 07:13:07;;;;;;;7.28;4.50;;;;;;;;;;4955539;29;20196;-80
2021/12/12 07:15:36;;;;;;;8.07;4.30;;;;;;;;;;4950198;29;20219;-80
2021/12/12 07:18:06;;;;;;;7.38;4.80;;;;;;;;;;4949294;29;20645;-81
2021/12/12 07:20:32;;;;;;;5.53;4.80;;;;;;;;;;4963184;28;20177;-81
2021/12/12 07:22:58;;;;;;;7.93;3.70;;;;;;;;;;4959049;29;20177;-81
2021/12/12 07:25:24;;;;;;;6.10;4.47;;;;;;;;;;4950652;29;20199;-81
2021/12/12 07:27:52;;;;;;;5.32;3.55;;;;;;;;;;4964986;28;20262;-81
2021/12/12 07:30:18;;;;;;;7.28;4.47;;;;;;;;;;4950456;29;20211;-81
2021/12/12 07:32:45;;;;;;;7.20;4.47;;;;;;;;;;4949274;29;20192;-81
2021/12/12 07:35:12;;;;;;;5.40;3.45;;;;;;;;;;4968739;28;20204;-82
2021/12/12 07:37:38;;;;;;;6.30;3.95;;;;;;;;;;4950926;29;20195;-82
2021/12/12 07:40:06;;;;;;;4.72;3.47;;;;;;;;;;4950856;29;20244;-81
2021/12/12 07:42:33;;;;;;;6.60;3.80;;;;;;;;;;4950535;29;20204;-81
2021/12/12 07:44:59;;;;;;;8.40;4.50;;;;;;;;;;4963100;28;20217;-81
2021/12/12 07:47:25;;;;;;;7.70;3.95;;;;;;;;;;4949834;29;20213;-81
2021/12/12 07:49:52;;;;;;;4.72;4.03;;;;;;;;;;4964955;29;20177;-81
2021/12/12 07:52:20;;;;;;;5.60;4.28;;;;;;;;;;4945422;29;20343;-82
2021/12/12 07:54:48;;;;;;;7.30;4.85;;;;;;;;;;4964164;28;20812;-82
2021/12/12 07:57:14;;;;;;;5.40;4.18;;;;;;;;;;4947282;29;20184;-81
2021/12/12 07:59:41;;;;;;;5.05;4.10;;;;;;;;;;4948734;28;20184;-82
2021/12/12 08:02:07;;;;;;;4.35;3.83;;;;;;;;;;4964167;29;20208;-81
2021/12/12 08:04:35;;;;;;;5.70;3.90;;;;;;;;;;4950792;29;20271;-80
2021/12/12 08:07:01;;;;;;;4.57;3.95;;;;;;;;;;4947934;29;20212;-83
2021/12/12 08:09:27;;;;;;;5.65;3.85;;;;;;;;;;4964893;28;20553;-79
2021/12/12 08:11:54;;;;;;;7.45;4.60;;;;;;;;;;4951915;29;20183;-85
2021/12/12 08:14:22;;;;;;;4.85;4.20;;;;;;;;;;4963608;29;20208;-84
2021/12/12 08:16:49;;;;;;;6.82;4.00;;;;;;;;;;4963291;29;20263;-86
2021/12/12 08:19:16;;;;;;;3.85;3.17;;;;;;;;;;4962246;28;20383;-86
2021/12/12 08:21:42;;;;;;;5.55;4.50;;;;;;;;;;4948206;29;20199;-85
2021/12/12 08:24:10;;;;;;;4.65;3.65;;;;;;;;;;4949528;29;20284;-86
2021/12/12 08:26:38;;;;;;;4.53;3.50;;;;;;;;;;4962671;28;20204;-83
2021/12/12 08:29:07;;;;;;;5.60;4.30;;;;;;;;;;4948516;29;20181;-82
2021/12/12 08:31:34;;;;;;;4.15;3.65;;;;;;;;;;4948125;29;20638;-83
2021/12/12 08:34:01;;;;;;;6.82;3.92;;;;;;;;;;4964114;28;20203;-82
2021/12/12 08:36:27;;;;;;;4.25;3.45;;;;;;;;;;4949618;29;20197;-85
2021/12/12 08:38:53;;;;;;;4.63;3.60;;;;;;;;;;4950923;29;20185;-85
2021/12/12 08:41:20;;;;;;;5.45;4.07;;;;;;;;;;4949195;29;20219;-83
2021/12/12 08:43:46;;;;;;;4.35;3.92;;;;;;;;;;4948484;29;20215;-83
2021/12/12 08:46:14;;;;;;;6.10;3.90;;;;;;;;;;4947834;29;20235;-85
2021/12/12 08:48:41;;;;;;;6.65;3.95;;;;;;;;;;4945990;29;20184;-84
2021/12/12 08:51:12;;;;;;;4.85;3.80;;;;;;;;;;4946701;28;20630;-84
2021/12/12 08:53:39;;;;;;;5.13;4.55;;;;;;;;;;4981109;28;20232;-84
2021/12/12 08:56:06;;;;;;;5.57;4.00;;;;;;;;;;4965795;28;20192;-84
2021/12/12 08:58:33;;;;;;;4.03;3.63;;;;;;;;;;4948352;29;20264;-83
2021/12/12 09:01:08;;;;;;;5.28;4.47;;;;;;;;;;4962929;29;20639;-84
2021/12/12 09:03:39;;;;;;;5.10;4.10;;;;;;;;;;4947368;29;20188;-87
2021/12/12 09:06:07;;;;;;;4.40;3.72;;;;;;;;;;4963268;28;20216;-85
2021/12/12 09:08:33;;;;;;;6.15;3.88;;;;;;;;;;4963399;28;20177;-84
2021/12/12 09:11:03;;;;;;;5.70;4.60;;;;;;;;;;4965897;29;20196;-87
2021/12/12 09:13:34;;;;;;;5.15;4.05;;;;;;;;;;4949181;29;20436;-86
2021/12/12 09:16:11;;;;;;;5.85;4.22;;;;;;;;;;4944804;29;20188;-85
2021/12/12 09:18:39;;;;;;;4.90;4.03;;;;;;;;;;4962227;28;20187;-85
2021/12/12 09:21:07;;;;;;;5.93;3.85;;;;;;;;;;4945032;29;20283;-87
2021/12/12 09:24:01;;;;;;;7.65;4.68;;;;;;;;;;4963046;28;20260;-85
2021/12/12 09:26:27;;;;;;;4.00;3.60;;;;;;;;;;4947646;29;20227;-85
2021/12/12 09:28:53;;;;;;;4.60;3.38;;;;;;;;;;4964462;28;20176;-84
2021/12/12 09:31:25;;;;;;;4.00;3.53;;;;;;;;;;4961677;29;20180;-85
2021/12/12 09:33:59;;;;;;;4.50;3.40;;;;;;;;;;4961862;28;20869;-89
2021/12/12 09:36:32;;;;;;;4.80;3.22;;;;;;;;;;4962278;28;20215;-85
2021/12/12 09:39:01;;;;;;;4.47;3.95;;;;;;;;;;4955717;29;20235;-88
2021/12/12 09:41:46;;;;;;;13.38;10.88;;;;;;;;;;4964876;28;20173;-85
2021/12/12 09:44:28;;;;;;;15.88;13.60;;;;;;;;;;4947222;29;20180;-84
2021/12/12 09:47:57;;;;;;;36.35;28.70;;;;;;;;;;4962112;29;20219;-85
2021/12/12 09:53:10;;;;;;;157.43;79.47;;;;;;;;;;4964389;28;20203;-86
2021/12/12 09:55:45;;;;;;;191.13;99.93;;;;;;;;;;4949353;28;20192;-82
2021/12/12 09:58:15;;;;;;;224.38;111.70;;;;;;;;;;4965801;28;20250;-84
2021/12/12 10:00:42;;;;;;;112.53;60.22;;;;;;;;;;4944876;29;20204;-85
2021/12/12 10:03:12;;;;;;;32.70;21.13;;;;;;;;;;4961607;28;20185;-84
2021/12/12 10:06:13;;;;;;;38.80;23.02;;;;;;;;;;4946478;28;20212;-83
2021/12/12 10:08:48;;;;;;;388.52;202.02;;;;;;;;;;4922121;29;20194;-84
2021/12/12 10:11:41;;;;;;;325.25;161.25;;;;;;;;;;4909276;29;20181;-83
2021/12/12 10:14:16;;;;;;;164.45;89.13;;;;;;;;;;4833726;29;20192;-83
2021/12/12 10:16:48;;;;;;;261.33;160.95;;;;;;;;;;4833204;29;20705;-84
2021/12/12 10:19:27;;;;;;;117.60;75.35;;;;;;;;;;4833953;29;20371;-84
2021/12/12 10:21:53;;;;;;;26.23;23.55;;;;;;;;;;4853623;29;20714;-83
2021/12/12 10:24:19;;;;;;;46.37;39.40;;;;;;;;;;4853243;29;20229;-85
2021/12/12 10:26:49;;;;;;;13.40;12.05;;;;;;;;;;4852963;29;20465;-82
2021/12/12 10:29:37;;;;;;;52.25;45.95;;;;;;;;;;4838772;29;20215;-83
2021/12/12 10:32:14;;;;;;;17.02;15.45;;;;;;;;;;4853452;29;20188;-82
2021/12/12 10:34:52;;;;;;;9.90;9.00;;;;;;;;;;4853613;29;20184;-81
2021/12/12 10:37:26;;;;;;;11.93;11.05;;;;;;;;;;4836914;29;20643;-83
2021/12/12 10:39:58;;;;;;;10.63;9.82;;;;;;;;;;4853022;29;20202;-83
2021/12/12 10:42:26;;;;;;;3.78;3.40;;;;;;;;;;4837903;29;20200;-83
2021/12/12 10:44:54;;;;;;;5.82;5.28;;;;;;;;;;4861407;29;20341;-85
2021/12/12 10:47:30;;;;;;;8.38;7.68;;;;;;;;;;4852331;29;20211;-83
2021/12/12 10:50:16;;;;;;;8.90;8.20;;;;;;;;;;4881574;29;20282;-82
2021/12/12 10:52:54;;;;;;;7.53;6.82;;;;;;;;;;4951098;29;20258;-82
2021/12/12 10:55:22;;;;;;;5.20;4.70;;;;;;;;;;4966188;29;20192;-80
2021/12/12 10:58:07;;;;;;;9.57;8.85;;;;;;;;;;4948184;29;20184;-84
2021/12/12 11:00:36;;;;;;;6.35;5.85;;;;;;;;;;4947618;29;20188;-83
2021/12/12 11:03:07;;;;;;;4.63;4.10;;;;;;;;;;4950885;29;20251;-80
2021/12/12 11:05:46;;;;;;;5.50;4.00;;;;;;;;;;4949713;29;20299;-82
2021/12/12 11:08:15;;;;;;;4.75;3.65;;;;;;;;;;4967944;29;20184;-83
2021/12/12 11:10:42;;;;;;;3.70;3.40;;;;;;;;;;4948208;29;20581;-80
2021/12/12 11:13:11;;;;;;;4.20;3.78;;;;;;;;;;4965894;29;20188;-82
2021/12/12 11:15:41;;;;;;;10.15;9.40;;;;;;;;;;4964091;28;20185;-80
2021/12/12 11:18:11;;;;;;;4.72;4.32;;;;;;;;;;4965299;28;20650;-81
2021/12/12 11:20:42;;;;;;;7.32;6.68;;;;;;;;;;4967869;28;20297;-80
2021/12/12 11:23:19;;;;;;;4.90;4.50;;;;;;;;;;4967429;29;20191;-83
2021/12/12 11:26:00;;;;;;;3.35;3.05;;;;;;;;;;4964732;28;20302;-79
2021/12/12 11:28:26;;;;;;;4.80;3.80;;;;;;;;;;4947349;29;20195;-81
2021/12/12 11:30:57;;;;;;;4.90;3.40;;;;;;;;;;4950448;29;20212;-81
2021/12/12 11:33:25;;;;;;;3.75;3.45;;;;;;;;;;4963692;28;20937;-83
2021/12/12 11:35:55;;;;;;;4.40;3.10;;;;;;;;;;4964631;28;20184;-80
2021/12/12 11:38:21;;;;;;;3.83;3.25;;;;;;;;;;4960065;29;20178;-80
2021/12/12 11:40:49;;;;;;;3.30;3.00;;;;;;;;;;4967573;28;20212;-80
2021/12/12 11:43:24;;;;;;;3.03;2.50;;;;;;;;;;4945588;29;20463;-80
2021/12/12 11:45:53;;;;;;;2.95;2.65;;;;;;;;;;4948324;29;20188;-82
2021/12/12 11:48:36;;;;;;;4.25;3.72;;;;;;;;;;4974750;28;20271;-76
2021/12/12 11:51:05;;;;;;;3.08;2.75;;;;;;;;;;4952999;29;20200;-77
2021/12/12 11:53:41;;;;;;;3.90;3.05;;;;;;;;;;4949011;28;20176;-77
2021/12/12 11:56:15;;;;;;;3.17;2.67;;;;;;;;;;4948956;29;20176;-77
2021/12/12 11:59:00;;;;;;;3.55;2.70;;;;;;;;;;4946962;29;20219;-76
2021/12/12 12:01:39;;;;;;;3.35;2.90;;;;;;;;;;4949745;29;20200;-77
2021/12/12 12:04:14;;;;;;;3.58;3.00;;;;;;;;;;4949167;29;20301;-77
2021/12/12 12:06:57;;;;;;;3.45;3.15;;;;;;;;;;4963553;28;20263;-75
2021/12/12 12:09:28;;;;;;;3.05;2.85;;;;;;;;;;4947190;29;20252;-77
2021/12/12 12:12:13;;;;;;;3.92;3.63;;;;;;;;;;4947566;28;20179;-77
2021/12/12 12:14:52;;;;;;;3.45;3.15;;;;;;;;;;4963505;28;20189;-78
2021/12/12 12:17:37;;;;;;;4.28;3.30;;;;;;;;;;4964601;29;20183;-77
2021/12/12 12:20:07;;;;;;;3.58;3.25;;;;;;;;;;4950000;29;20184;-76
2021/12/12 12:22:33;;;;;;;3.63;3.28;;;;;;;;;;4964336;29;20207;-78
2021/12/12 12:25:14;;;;;;;5.13;3.53;;;;;;;;;;4946664;29;20272;-77
2021/12/12 12:27:44;;;;;;;3.28;2.88;;;;;;;;;;4948389;29;20209;-77
2021/12/12 12:30:16;;;;;;;3.00;2.70;;;;;;;;;;4946791;29;20200;-78
2021/12/12 12:33:01;;;;;;;3.28;2.95;;;;;;;;;;4948504;28;20173;-78
2021/12/12 12:35:46;;;;;;;6.20;3.25;;;;;;;;;;4963429;28;20252;-78
2021/12/12 12:38:21;;;;;;;3.22;2.50;;;;;;;;;;4964703;29;20210;-77
2021/12/12 12:40:59;;;;;;;3.15;2.85;;;;;;;;;;4946191;29;20271;-77
2021/12/12 12:43:44;;;;;;;3.35;3.00;;;;;;;;;;4948661;29;20181;-78
2021/12/12 12:46:29;;;;;;;3.65;3.25;;;;;;;;;;4962639;28;20212;-78
2021/12/12 12:49:13;;;;;;;3.15;2.95;;;;;;;;;;4963836;28;20260;-79
2021/12/12 12:51:48;;;;;;;2.60;2.40;;;;;;;;;;4945868;29;20240;-79
2021/12/12 12:54:26;;;;;;;3.00;2.80;;;;;;;;;;4963496;28;20183;-77
2021/12/12 12:57:17;;;;;;;3.38;2.78;;;;;;;;;;4946769;28;20215;-78
2021/12/12 13:00:06;;;;;;;3.13;2.80;;;;;;;;;;4962456;28;20272;-77
2021/12/12 13:02:38;;;;;;;3.13;2.85;;;;;;;;;;4961788;29;20178;-78
2021/12/12 13:05:07;;;;;;;3.20;2.92;;;;;;;;;;4947304;29;20223;-78
2021/12/12 13:07:42;;;;;;;2.97;2.78;;;;;;;;;;4962103;29;20375;-78
2021/12/12 13:10:09;;;;;;;3.50;3.20;;;;;;;;;;4962778;28;20279;-79
2021/12/12 13:12:45;;;;;;;3.88;3.47;;;;;;;;;;4963640;28;20189;-77
2021/12/12 13:15:14;;;;;;;3.80;3.28;;;;;;;;;;4945946;29;20308;-78
2021/12/12 13:17:47;;;;;;;4.03;2.90;;;;;;;;;;4946740;28;20244;-79
2021/12/12 13:20:32;;;;;;;4.03;3.45;;;;;;;;;;4965528;29;20646;-78
2021/12/12 13:23:10;;;;;;;4.00;3.25;;;;;;;;;;4948275;29;20248;-79
2021/12/12 13:25:40;;;;;;;3.30;3.10;;;;;;;;;;4947766;29;20196;-76
2021/12/12 13:28:18;;;;;;;4.70;3.40;;;;;;;;;;4962579;29;20204;-79
2021/12/12 13:31:00;;;;;;;3.35;3.05;;;;;;;;;;4963335;28;20415;-79
2021/12/12 13:33:30;;;;;;;3.22;2.92;;;;;;;;;;4963003;28;20221;-78
2021/12/12 13:36:02;;;;;;;3.53;3.22;;;;;;;;;;4947648;28;20327;-77
2021/12/12 13:38:39;;;;;;;3.53;3.22;;;;;;;;;;4948518;28;20232;-78
2021/12/12 13:41:14;;;;;;;3.88;3.55;;;;;;;;;;4962843;29;20180;-78
2021/12/12 13:44:01;;;;;;;4.40;4.00;;;;;;;;;;4945268;29;20251;-78
2021/12/12 13:46:47;;;;;;;4.47;4.07;;;;;;;;;;4946895;29;20204;-78
2021/12/12 13:49:34;;;;;;;4.80;4.05;;;;;;;;;;4962314;29;20184;-79
2021/12/12 13:52:00;;;;;;;3.53;3.30;;;;;;;;;;4962100;28;20189;-78
2021/12/12 13:54:38;;;;;;;3.92;3.63;;;;;;;;;;4961935;28;20267;-79
2021/12/12 13:57:08;;;;;;;5.22;4.57;;;;;;;;;;4948455;28;20176;-78
2021/12/12 13:59:53;;;;;;;6.38;5.43;;;;;;;;;;4964554;28;20184;-79
2021/12/12 14:02:20;;;;;;;4.10;3.70;;;;;;;;;;4948430;29;20169;-79
2021/12/12 14:04:50;;;;;;;3.58;3.28;;;;;;;;;;4945065;29;20234;-78
2021/12/12 14:07:17;;;;;;;4.47;4.05;;;;;;;;;;4946763;29;20218;-78
2021/12/12 14:09:48;;;;;;;4.40;3.97;;;;;;;;;;4961655;28;20181;-79
2021/12/12 14:12:15;;;;;;;5.65;4.85;;;;;;;;;;4962673;28;20188;-78
2021/12/12 14:14:53;;;;;;;4.97;3.53;;;;;;;;;;4946685;29;20203;-78
2021/12/12 14:17:28;;;;;;;4.18;3.80;;;;;;;;;;4963853;29;20180;-78
2021/12/12 14:20:00;;;;;;;4.55;3.75;;;;;;;;;;4948164;29;20665;-79
2021/12/12 14:22:26;;;;;;;4.15;3.85;;;;;;;;;;4946821;29;20294;-78
2021/12/12 14:24:56;;;;;;;4.22;3.85;;;;;;;;;;4947326;29;20203;-79
2021/12/12 14:27:22;;;;;;;4.68;4.28;;;;;;;;;;4947211;29;20805;-79
2021/12/12 14:29:49;;;;;;;3.67;3.38;;;;;;;;;;4945754;29;20187;-77
2021/12/12 14:32:37;;;;;;;4.70;3.63;;;;;;;;;;4965120;29;20231;-77
2021/12/12 14:35:03;;;;;;;3.90;3.55;;;;;;;;;;4947803;29;20234;-77
2021/12/12 14:37:31;;;;;;;5.30;4.43;;;;;;;;;;4961505;28;20212;-78
2021/12/12 14:40:04;;;;;;;5.88;4.45;;;;;;;;;;4944748;29;20657;-78
2021/12/12 14:42:32;;;;;;;4.50;3.63;;;;;;;;;;4962006;29;20215;-78
2021/12/12 14:45:04;;;;;;;4.35;3.88;;;;;;;;;;4962169;28;20181;-78
2021/12/12 14:47:34;;;;;;;4.80;4.40;;;;;;;;;;4946537;28;20204;-78
2021/12/12 14:50:07;;;;;;;5.15;4.65;;;;;;;;;;4964995;29;20179;-79
2021/12/12 14:52:34;;;;;;;5.10;4.57;;;;;;;;;;4961627;28;20192;-79
2021/12/12 14:55:00;;;;;;;7.00;5.25;;;;;;;;;;4944688;29;20200;-79
2021/12/12 14:57:33;;;;;;;5.45;4.95;;;;;;;;;;4947555;29;20176;-79
2021/12/12 15:00:00;;;;;;;6.10;5.50;;;;;;;;;;4945996;29;20256;-78
2021/12/12 15:02:31;;;;;;;7.32;6.50;;;;;;;;;;4965246;29;20180;-78
2021/12/12 15:05:02;;;;;;;6.75;6.05;;;;;;;;;;4941467;29;20218;-78
2021/12/12 15:07:32;;;;;;;7.88;6.00;;;;;;;;;;4941525;29;20209;-78
2021/12/12 15:10:17;;;;;;;4.75;4.35;;;;;;;;;;4937427;29;20181;-79
2021/12/12 15:12:45;;;;;;;5.97;5.38;;;;;;;;;;4927225;29;20198;-79
2021/12/12 15:15:14;;;;;;;7.75;7.05;;;;;;;;;;4927248;29;20186;-79
2021/12/12 15:17:45;;;;;;;9.55;6.95;;;;;;;;;;4927331;29;20174;-79
2021/12/12 15:20:17;;;;;;;6.78;5.90;;;;;;;;;;4943964;29;20182;-78
2021/12/12 15:22:45;;;;;;;7.38;6.68;;;;;;;;;;4929763;29;20201;-79